sensor_id;sensor_type;location;lat;lon;timestamp;temperature;humidity
40868;DHT22;26586;50.708;22.412;2022-10-16T00:01:25;18.30;54.90
40868;DHT22;26586;50.708;22.412;2022-10-16T00:03:52;18.30;54.80
40868;DHT22;26586;50.708;22.412;2022-10-16T00:06:20;18.20;54.90
40868;DHT22;26586;50.708;22.412;2022-10-16T00:08:47;18.20;54.80
40868;DHT22;26586;50.708;22.412;2022-10-16T00:11:22;18.20;55.50
40868;DHT22;26586;50.708;22.412;2022-10-16T00:13:51;18.20;55.60
40868;DHT22;26586;50.708;22.412;2022-10-16T00:16:18;18.20;55.20
40868;DHT22;26586;50.708;22.412;2022-10-16T00:18:45;18.20;55.30
40868;DHT22;26586;50.708;22.412;2022-10-16T00:21:20;18.20;55.30
40868;DHT22;26586;50.708;22.412;2022-10-16T00:23:49;18.20;55.30
40868;DHT22;26586;50.708;22.412;2022-10-16T00:26:17;18.10;55.10
40868;DHT22;26586;50.708;22.412;2022-10-16T00:28:46;18.10;55.00
40868;DHT22;26586;50.708;22.412;2022-10-16T00:31:13;18.10;55.00
40868;DHT22;26586;50.708;22.412;2022-10-16T00:33:39;18.10;55.10
40868;DHT22;26586;50.708;22.412;2022-10-16T00:36:07;18.10;55.50
40868;DHT22;26586;50.708;22.412;2022-10-16T00:38:35;18.10;55.20
40868;DHT22;26586;50.708;22.412;2022-10-16T00:41:01;18.10;55.40
40868;DHT22;26586;50.708;22.412;2022-10-16T00:46:33;18.00;55.50
40868;DHT22;26586;50.708;22.412;2022-10-16T00:49:12;18.00;55.30
40868;DHT22;26586;50.708;22.412;2022-10-16T00:51:44;18.00;55.60
40868;DHT22;26586;50.708;22.412;2022-10-16T00:54:30;18.00;55.30
40868;DHT22;26586;50.708;22.412;2022-10-16T00:57:00;18.00;55.40
40868;DHT22;26586;50.708;22.412;2022-10-16T00:59:30;18.00;55.40
40868;DHT22;26586;50.708;22.412;2022-10-16T01:01:57;17.90;55.70
40868;DHT22;26586;50.708;22.412;2022-10-16T01:04:25;17.90;56.00
40868;DHT22;26586;50.708;22.412;2022-10-16T01:10:06;17.90;56.00
40868;DHT22;26586;50.708;22.412;2022-10-16T01:18:00;17.90;56.10
40868;DHT22;26586;50.708;22.412;2022-10-16T01:20:33;17.90;56.30
40868;DHT22;26586;50.708;22.412;2022-10-16T01:28:39;17.80;55.80
40868;DHT22;26586;50.708;22.412;2022-10-16T01:31:08;17.80;55.60
40868;DHT22;26586;50.708;22.412;2022-10-16T01:33:43;17.80;55.90
40868;DHT22;26586;50.708;22.412;2022-10-16T01:36:17;17.80;55.60
40868;DHT22;26586;50.708;22.412;2022-10-16T01:38:47;17.80;55.60
40868;DHT22;26586;50.708;22.412;2022-10-16T01:41:21;17.80;55.60
40868;DHT22;26586;50.708;22.412;2022-10-16T01:44:04;17.80;55.70
40868;DHT22;26586;50.708;22.412;2022-10-16T01:46:32;17.70;55.80
40868;DHT22;26586;50.708;22.412;2022-10-16T01:49:00;17.70;56.40
40868;DHT22;26586;50.708;22.412;2022-10-16T01:51:28;17.70;56.40
40868;DHT22;26586;50.708;22.412;2022-10-16T01:53:57;17.70;56.40
40868;DHT22;26586;50.708;22.412;2022-10-16T01:56:25;17.70;56.30
40868;DHT22;26586;50.708;22.412;2022-10-16T01:59:09;17.70;56.20
40868;DHT22;26586;50.708;22.412;2022-10-16T02:01:38;17.70;56.00
40868;DHT22;26586;50.708;22.412;2022-10-16T02:04:32;17.70;56.00
40868;DHT22;26586;50.708;22.412;2022-10-16T02:06:59;17.70;55.80
40868;DHT22;26586;50.708;22.412;2022-10-16T02:09:26;17.60;55.80
40868;DHT22;26586;50.708;22.412;2022-10-16T02:11:54;17.60;55.70
40868;DHT22;26586;50.708;22.412;2022-10-16T02:14:23;17.60;55.80
40868;DHT22;26586;50.708;22.412;2022-10-16T02:16:50;17.60;56.30
40868;DHT22;26586;50.708;22.412;2022-10-16T02:19:18;17.60;56.00
40868;DHT22;26586;50.708;22.412;2022-10-16T02:22:01;17.60;56.30
40868;DHT22;26586;50.708;22.412;2022-10-16T02:27:33;17.60;56.10
40868;DHT22;26586;50.708;22.412;2022-10-16T02:30:28;17.60;56.00
40868;DHT22;26586;50.708;22.412;2022-10-16T02:32:53;17.50;56.40
40868;DHT22;26586;50.708;22.412;2022-10-16T02:35:22;17.50;56.80
40868;DHT22;26586;50.708;22.412;2022-10-16T02:37:50;17.50;56.60
40868;DHT22;26586;50.708;22.412;2022-10-16T02:40:18;17.50;56.50
40868;DHT22;26586;50.708;22.412;2022-10-16T02:42:44;17.50;56.20
40868;DHT22;26586;50.708;22.412;2022-10-16T02:45:11;17.50;56.30
40868;DHT22;26586;50.708;22.412;2022-10-16T02:47:38;17.50;56.90
40868;DHT22;26586;50.708;22.412;2022-10-16T02:50:04;17.50;57.10
40868;DHT22;26586;50.708;22.412;2022-10-16T02:52:30;17.40;57.80
40868;DHT22;26586;50.708;22.412;2022-10-16T02:54:57;17.50;56.90
40868;DHT22;26586;50.708;22.412;2022-10-16T02:57:23;17.40;56.90
40868;DHT22;26586;50.708;22.412;2022-10-16T02:59:49;17.50;56.80
40868;DHT22;26586;50.708;22.412;2022-10-16T03:02:15;17.50;56.50
40868;DHT22;26586;50.708;22.412;2022-10-16T03:04:42;17.40;56.60
40868;DHT22;26586;50.708;22.412;2022-10-16T03:07:08;17.40;56.80
40868;DHT22;26586;50.708;22.412;2022-10-16T03:09:34;17.40;56.90
40868;DHT22;26586;50.708;22.412;2022-10-16T03:12:01;17.40;56.90
40868;DHT22;26586;50.708;22.412;2022-10-16T03:14:27;17.40;56.80
40868;DHT22;26586;50.708;22.412;2022-10-16T03:16:53;17.40;56.60
40868;DHT22;26586;50.708;22.412;2022-10-16T03:19:19;17.40;56.90
40868;DHT22;26586;50.708;22.412;2022-10-16T03:21:45;17.40;57.30
40868;DHT22;26586;50.708;22.412;2022-10-16T03:24:12;17.40;57.10
40868;DHT22;26586;50.708;22.412;2022-10-16T03:26:38;17.40;56.80
40868;DHT22;26586;50.708;22.412;2022-10-16T03:29:04;17.30;56.70
40868;DHT22;26586;50.708;22.412;2022-10-16T03:31:31;17.30;56.70
40868;DHT22;26586;50.708;22.412;2022-10-16T03:33:57;17.30;56.80
40868;DHT22;26586;50.708;22.412;2022-10-16T03:36:23;17.30;56.90
40868;DHT22;26586;50.708;22.412;2022-10-16T03:38:49;17.30;56.90
40868;DHT22;26586;50.708;22.412;2022-10-16T03:41:15;17.30;57.30
40868;DHT22;26586;50.708;22.412;2022-10-16T03:43:42;17.30;57.30
40868;DHT22;26586;50.708;22.412;2022-10-16T03:46:08;17.30;56.90
40868;DHT22;26586;50.708;22.412;2022-10-16T03:48:35;17.30;57.80
40868;DHT22;26586;50.708;22.412;2022-10-16T03:51:01;17.20;57.90
40868;DHT22;26586;50.708;22.412;2022-10-16T03:53:27;17.30;57.70
40868;DHT22;26586;50.708;22.412;2022-10-16T03:55:53;17.30;58.80
40868;DHT22;26586;50.708;22.412;2022-10-16T03:58:19;17.30;58.50
40868;DHT22;26586;50.708;22.412;2022-10-16T04:00:46;17.30;58.30
40868;DHT22;26586;50.708;22.412;2022-10-16T04:03:13;17.30;57.50
40868;DHT22;26586;50.708;22.412;2022-10-16T04:05:39;17.30;58.00
40868;DHT22;26586;50.708;22.412;2022-10-16T04:08:06;17.20;57.50
40868;DHT22;26586;50.708;22.412;2022-10-16T04:10:32;17.20;58.00
40868;DHT22;26586;50.708;22.412;2022-10-16T04:12:59;17.20;57.60
40868;DHT22;26586;50.708;22.412;2022-10-16T04:15:25;17.20;57.40
40868;DHT22;26586;50.708;22.412;2022-10-16T04:17:52;17.20;58.40
40868;DHT22;26586;50.708;22.412;2022-10-16T04:20:18;17.20;57.10
40868;DHT22;26586;50.708;22.412;2022-10-16T04:22:45;17.20;57.30
40868;DHT22;26586;50.708;22.412;2022-10-16T04:25:11;17.20;57.60
40868;DHT22;26586;50.708;22.412;2022-10-16T04:27:38;17.20;57.30
40868;DHT22;26586;50.708;22.412;2022-10-16T04:30:04;17.20;57.50
40868;DHT22;26586;50.708;22.412;2022-10-16T04:32:31;17.20;58.20
40868;DHT22;26586;50.708;22.412;2022-10-16T04:34:57;17.20;57.60
40868;DHT22;26586;50.708;22.412;2022-10-16T04:37:25;17.20;57.70
40868;DHT22;26586;50.708;22.412;2022-10-16T04:39:52;17.20;58.20
40868;DHT22;26586;50.708;22.412;2022-10-16T04:42:19;17.20;57.30
40868;DHT22;26586;50.708;22.412;2022-10-16T04:44:45;17.20;57.90
40868;DHT22;26586;50.708;22.412;2022-10-16T04:47:12;17.20;57.40
40868;DHT22;26586;50.708;22.412;2022-10-16T04:49:39;17.20;57.30
40868;DHT22;26586;50.708;22.412;2022-10-16T04:52:05;17.20;57.50
40868;DHT22;26586;50.708;22.412;2022-10-16T04:54:31;17.20;56.90
40868;DHT22;26586;50.708;22.412;2022-10-16T04:56:58;17.20;57.10
40868;DHT22;26586;50.708;22.412;2022-10-16T04:59:24;17.20;57.30
40868;DHT22;26586;50.708;22.412;2022-10-16T05:01:50;17.20;56.90
40868;DHT22;26586;50.708;22.412;2022-10-16T05:04:16;17.20;58.40
40868;DHT22;26586;50.708;22.412;2022-10-16T05:06:43;17.20;58.00
40868;DHT22;26586;50.708;22.412;2022-10-16T05:09:09;17.30;57.30
40868;DHT22;26586;50.708;22.412;2022-10-16T05:11:36;17.20;57.90
40868;DHT22;26586;50.708;22.412;2022-10-16T05:14:02;17.30;58.60
40868;DHT22;26586;50.708;22.412;2022-10-16T05:16:29;17.30;58.10
40868;DHT22;26586;50.708;22.412;2022-10-16T05:18:56;17.30;58.80
40868;DHT22;26586;50.708;22.412;2022-10-16T05:21:22;17.30;57.60
40868;DHT22;26586;50.708;22.412;2022-10-16T05:23:48;17.30;57.20
40868;DHT22;26586;50.708;22.412;2022-10-16T05:26:15;17.30;57.00
40868;DHT22;26586;50.708;22.412;2022-10-16T05:28:41;17.30;57.60
40868;DHT22;26586;50.708;22.412;2022-10-16T05:31:08;17.30;57.60
40868;DHT22;26586;50.708;22.412;2022-10-16T05:33:35;17.30;57.00
40868;DHT22;26586;50.708;22.412;2022-10-16T05:36:04;17.30;57.00
40868;DHT22;26586;50.708;22.412;2022-10-16T05:38:30;17.30;57.00
40868;DHT22;26586;50.708;22.412;2022-10-16T05:40:57;17.30;57.00
40868;DHT22;26586;50.708;22.412;2022-10-16T05:43:23;17.30;57.60
40868;DHT22;26586;50.708;22.412;2022-10-16T05:45:57;17.30;58.10
40868;DHT22;26586;50.708;22.412;2022-10-16T05:48:23;17.40;58.80
40868;DHT22;26586;50.708;22.412;2022-10-16T05:51:00;17.40;59.60
40868;DHT22;26586;50.708;22.412;2022-10-16T05:53:30;17.40;65.30
40868;DHT22;26586;50.708;22.412;2022-10-16T05:55:57;17.40;70.40
40868;DHT22;26586;50.708;22.412;2022-10-16T05:58:28;17.50;67.50
40868;DHT22;26586;50.708;22.412;2022-10-16T06:00:57;17.50;67.40
40868;DHT22;26586;50.708;22.412;2022-10-16T06:03:23;17.50;65.80
40868;DHT22;26586;50.708;22.412;2022-10-16T06:05:50;17.60;67.90
40868;DHT22;26586;50.708;22.412;2022-10-16T06:08:18;17.60;68.60
40868;DHT22;26586;50.708;22.412;2022-10-16T06:10:44;17.60;69.80
40868;DHT22;26586;50.708;22.412;2022-10-16T06:13:12;17.70;69.80
40868;DHT22;26586;50.708;22.412;2022-10-16T06:15:39;17.70;70.20
40868;DHT22;26586;50.708;22.412;2022-10-16T06:18:08;17.80;69.80
40868;DHT22;26586;50.708;22.412;2022-10-16T06:20:35;17.80;68.60
40868;DHT22;26586;50.708;22.412;2022-10-16T06:23:02;17.80;71.20
40868;DHT22;26586;50.708;22.412;2022-10-16T06:25:31;17.90;71.20
40868;DHT22;26586;50.708;22.412;2022-10-16T06:27:58;17.90;70.70
40868;DHT22;26586;50.708;22.412;2022-10-16T06:30:24;17.90;65.00
40868;DHT22;26586;50.708;22.412;2022-10-16T06:32:50;17.90;64.40
40868;DHT22;26586;50.708;22.412;2022-10-16T06:35:17;17.90;62.90
40868;DHT22;26586;50.708;22.412;2022-10-16T06:37:43;17.90;63.60
40868;DHT22;26586;50.708;22.412;2022-10-16T06:40:09;17.90;62.20
40868;DHT22;26586;50.708;22.412;2022-10-16T06:42:35;17.90;62.20
40868;DHT22;26586;50.708;22.412;2022-10-16T06:45:02;17.90;61.30
40868;DHT22;26586;50.708;22.412;2022-10-16T06:47:28;18.00;63.10
40868;DHT22;26586;50.708;22.412;2022-10-16T06:49:54;17.90;62.90
40868;DHT22;26586;50.708;22.412;2022-10-16T06:52:20;18.00;61.50
40868;DHT22;26586;50.708;22.412;2022-10-16T06:54:46;18.00;62.00
40868;DHT22;26586;50.708;22.412;2022-10-16T06:57:13;18.00;63.60
40868;DHT22;26586;50.708;22.412;2022-10-16T06:59:39;18.00;63.20
40868;DHT22;26586;50.708;22.412;2022-10-16T07:02:05;18.10;64.10
40868;DHT22;26586;50.708;22.412;2022-10-16T07:04:32;18.10;63.60
40868;DHT22;26586;50.708;22.412;2022-10-16T07:07:00;18.10;63.60
40868;DHT22;26586;50.708;22.412;2022-10-16T07:09:27;18.20;66.30
40868;DHT22;26586;50.708;22.412;2022-10-16T07:11:54;18.20;63.10
40868;DHT22;26586;50.708;22.412;2022-10-16T07:14:21;18.20;64.50
40868;DHT22;26586;50.708;22.412;2022-10-16T07:16:48;18.30;66.40
40868;DHT22;26586;50.708;22.412;2022-10-16T07:19:14;18.30;65.70
40868;DHT22;26586;50.708;22.412;2022-10-16T07:21:42;18.40;65.50
40868;DHT22;26586;50.708;22.412;2022-10-16T07:24:15;18.40;68.30
40868;DHT22;26586;50.708;22.412;2022-10-16T07:26:43;18.50;65.80
40868;DHT22;26586;50.708;22.412;2022-10-16T07:29:14;18.50;66.80
40868;DHT22;26586;50.708;22.412;2022-10-16T07:31:41;18.60;65.80
40868;DHT22;26586;50.708;22.412;2022-10-16T07:34:08;18.60;64.70
40868;DHT22;26586;50.708;22.412;2022-10-16T07:36:35;18.70;63.00
40868;DHT22;26586;50.708;22.412;2022-10-16T07:39:01;18.70;61.40
40868;DHT22;26586;50.708;22.412;2022-10-16T07:41:28;18.70;64.00
40868;DHT22;26586;50.708;22.412;2022-10-16T07:43:54;18.80;62.70
40868;DHT22;26586;50.708;22.412;2022-10-16T07:46:23;18.90;62.60
40868;DHT22;26586;50.708;22.412;2022-10-16T07:48:50;18.90;61.70
40868;DHT22;26586;50.708;22.412;2022-10-16T07:51:18;18.90;63.70
40868;DHT22;26586;50.708;22.412;2022-10-16T07:53:45;18.90;62.00
40868;DHT22;26586;50.708;22.412;2022-10-16T07:56:12;19.00;60.20
40868;DHT22;26586;50.708;22.412;2022-10-16T07:58:39;19.00;60.10
40868;DHT22;26586;50.708;22.412;2022-10-16T08:01:07;19.00;59.50
40868;DHT22;26586;50.708;22.412;2022-10-16T08:03:34;19.00;59.00
40868;DHT22;26586;50.708;22.412;2022-10-16T08:06:00;19.00;59.70
40868;DHT22;26586;50.708;22.412;2022-10-16T08:08:27;19.00;59.50
40868;DHT22;26586;50.708;22.412;2022-10-16T08:10:54;19.10;59.20
40868;DHT22;26586;50.708;22.412;2022-10-16T08:13:20;19.10;60.90
40868;DHT22;26586;50.708;22.412;2022-10-16T08:15:47;19.10;58.80
40868;DHT22;26586;50.708;22.412;2022-10-16T08:18:14;19.20;59.50
40868;DHT22;26586;50.708;22.412;2022-10-16T08:20:41;19.20;59.80
40868;DHT22;26586;50.708;22.412;2022-10-16T08:23:09;19.20;60.30
40868;DHT22;26586;50.708;22.412;2022-10-16T08:25:36;19.20;59.30
40868;DHT22;26586;50.708;22.412;2022-10-16T08:28:04;19.20;59.60
40868;DHT22;26586;50.708;22.412;2022-10-16T08:30:31;19.20;60.10
40868;DHT22;26586;50.708;22.412;2022-10-16T08:32:58;19.30;61.60
40868;DHT22;26586;50.708;22.412;2022-10-16T08:35:24;19.30;62.90
40868;DHT22;26586;50.708;22.412;2022-10-16T08:37:50;19.30;62.30
40868;DHT22;26586;50.708;22.412;2022-10-16T08:43:21;19.40;59.80
40868;DHT22;26586;50.708;22.412;2022-10-16T08:46:16;19.50;60.10
40868;DHT22;26586;50.708;22.412;2022-10-16T08:48:51;19.50;59.80
40868;DHT22;26586;50.708;22.412;2022-10-16T08:51:26;19.60;60.80
40868;DHT22;26586;50.708;22.412;2022-10-16T08:53:59;19.60;60.10
40868;DHT22;26586;50.708;22.412;2022-10-16T08:56:27;19.70;60.50
40868;DHT22;26586;50.708;22.412;2022-10-16T08:58:54;19.70;60.00
40868;DHT22;26586;50.708;22.412;2022-10-16T09:01:24;19.80;59.80
40868;DHT22;26586;50.708;22.412;2022-10-16T09:07:06;19.90;59.50
40868;DHT22;26586;50.708;22.412;2022-10-16T09:15:39;20.10;59.50
40868;DHT22;26586;50.708;22.412;2022-10-16T09:18:34;20.20;59.10
40868;DHT22;26586;50.708;22.412;2022-10-16T09:23:36;20.30;58.90
40868;DHT22;26586;50.708;22.412;2022-10-16T09:26:05;20.40;58.90
40868;DHT22;26586;50.708;22.412;2022-10-16T09:28:34;20.40;58.70
40868;DHT22;26586;50.708;22.412;2022-10-16T09:31:01;20.50;58.70
40868;DHT22;26586;50.708;22.412;2022-10-16T09:33:34;20.50;58.70
40868;DHT22;26586;50.708;22.412;2022-10-16T09:36:05;20.60;58.60
40868;DHT22;26586;50.708;22.412;2022-10-16T09:38:34;20.60;58.40
40868;DHT22;26586;50.708;22.412;2022-10-16T09:41:20;20.70;58.30
40868;DHT22;26586;50.708;22.412;2022-10-16T09:43:55;20.80;58.10
40868;DHT22;26586;50.708;22.412;2022-10-16T09:46:35;20.80;58.00
40868;DHT22;26586;50.708;22.412;2022-10-16T09:49:17;20.90;57.90
40868;DHT22;26586;50.708;22.412;2022-10-16T09:51:44;20.90;58.00
40868;DHT22;26586;50.708;22.412;2022-10-16T09:54:16;21.00;57.70
40868;DHT22;26586;50.708;22.412;2022-10-16T09:56:43;21.00;57.60
40868;DHT22;26586;50.708;22.412;2022-10-16T09:59:16;21.10;57.50
40868;DHT22;26586;50.708;22.412;2022-10-16T10:01:53;21.10;57.40
40868;DHT22;26586;50.708;22.412;2022-10-16T10:04:23;21.10;57.30
40868;DHT22;26586;50.708;22.412;2022-10-16T10:06:52;21.20;57.20
40868;DHT22;26586;50.708;22.412;2022-10-16T10:14:55;21.30;56.80
40868;DHT22;26586;50.708;22.412;2022-10-16T10:17:24;21.30;56.50
40868;DHT22;26586;50.708;22.412;2022-10-16T10:22:26;21.40;56.30
40868;DHT22;26586;50.708;22.412;2022-10-16T10:30:59;21.50;56.50
40868;DHT22;26586;50.708;22.412;2022-10-16T10:33:52;21.60;56.40
40868;DHT22;26586;50.708;22.412;2022-10-16T10:36:39;21.60;56.10
40868;DHT22;26586;50.708;22.412;2022-10-16T10:44:39;21.60;55.40
40868;DHT22;26586;50.708;22.412;2022-10-16T10:50:26;21.70;55.90
40868;DHT22;26586;50.708;22.412;2022-10-16T10:55:31;21.70;56.10
40868;DHT22;26586;50.708;22.412;2022-10-16T11:08:40;21.70;56.00
40868;DHT22;26586;50.708;22.412;2022-10-16T11:11:17;21.70;56.00
40868;DHT22;26586;50.708;22.412;2022-10-16T11:13:58;21.70;55.80
40868;DHT22;26586;50.708;22.412;2022-10-16T11:16:33;21.80;56.10
40868;DHT22;26586;50.708;22.412;2022-10-16T11:21:44;21.80;56.00
40868;DHT22;26586;50.708;22.412;2022-10-16T11:24:21;21.80;55.80
40868;DHT22;26586;50.708;22.412;2022-10-16T11:26:49;21.90;55.80
40868;DHT22;26586;50.708;22.412;2022-10-16T11:29:24;21.90;55.80
40868;DHT22;26586;50.708;22.412;2022-10-16T11:31:57;21.90;55.70
40868;DHT22;26586;50.708;22.412;2022-10-16T11:34:46;21.90;56.00
40868;DHT22;26586;50.708;22.412;2022-10-16T11:37:19;21.90;56.20
40868;DHT22;26586;50.708;22.412;2022-10-16T11:39:46;21.90;55.90
40868;DHT22;26586;50.708;22.412;2022-10-16T11:42:27;21.90;56.20
40868;DHT22;26586;50.708;22.412;2022-10-16T11:47:57;22.00;56.80
40868;DHT22;26586;50.708;22.412;2022-10-16T11:50:42;22.00;56.70
40868;DHT22;26586;50.708;22.412;2022-10-16T11:53:44;22.00;56.50
40868;DHT22;26586;50.708;22.412;2022-10-16T11:56:16;22.00;56.00
40868;DHT22;26586;50.708;22.412;2022-10-16T11:58:55;22.00;56.20
40868;DHT22;26586;50.708;22.412;2022-10-16T12:01:42;22.00;56.10
40868;DHT22;26586;50.708;22.412;2022-10-16T12:04:33;22.00;56.20
40868;DHT22;26586;50.708;22.412;2022-10-16T12:07:23;22.10;56.00
40868;DHT22;26586;50.708;22.412;2022-10-16T12:09:52;22.10;56.40
40868;DHT22;26586;50.708;22.412;2022-10-16T12:15:03;22.10;56.30
40868;DHT22;26586;50.708;22.412;2022-10-16T12:17:38;22.10;56.50
40868;DHT22;26586;50.708;22.412;2022-10-16T12:23:19;22.10;56.70
40868;DHT22;26586;50.708;22.412;2022-10-16T12:25:54;22.10;56.90
40868;DHT22;26586;50.708;22.412;2022-10-16T12:28:27;22.10;57.00
40868;DHT22;26586;50.708;22.412;2022-10-16T12:31:00;22.10;56.90
40868;DHT22;26586;50.708;22.412;2022-10-16T12:33:28;22.10;56.80
40868;DHT22;26586;50.708;22.412;2022-10-16T12:35:56;22.10;56.70
40868;DHT22;26586;50.708;22.412;2022-10-16T12:38:47;22.20;56.80
40868;DHT22;26586;50.708;22.412;2022-10-16T12:41:31;22.20;56.90
40868;DHT22;26586;50.708;22.412;2022-10-16T12:43:59;22.20;57.20
40868;DHT22;26586;50.708;22.412;2022-10-16T12:46:35;22.20;56.80
40868;DHT22;26586;50.708;22.412;2022-10-16T12:51:39;22.20;56.80
40868;DHT22;26586;50.708;22.412;2022-10-16T12:57:40;22.20;57.00
40868;DHT22;26586;50.708;22.412;2022-10-16T13:00:32;22.20;57.30
40868;DHT22;26586;50.708;22.412;2022-10-16T13:03:08;22.20;57.30
40868;DHT22;26586;50.708;22.412;2022-10-16T13:25:32;22.30;58.30
40868;DHT22;26586;50.708;22.412;2022-10-16T13:28:08;22.30;58.00
40868;DHT22;26586;50.708;22.412;2022-10-16T13:30:51;22.30;57.60
40868;DHT22;26586;50.708;22.412;2022-10-16T13:33:53;22.30;57.20
40868;DHT22;26586;50.708;22.412;2022-10-16T13:36:18;22.20;56.70
40868;DHT22;26586;50.708;22.412;2022-10-16T13:38:44;22.30;56.90
40868;DHT22;26586;50.708;22.412;2022-10-16T13:41:16;22.30;56.50
40868;DHT22;26586;50.708;22.412;2022-10-16T13:43:49;22.30;56.20
40868;DHT22;26586;50.708;22.412;2022-10-16T13:48:44;22.30;55.90
40868;DHT22;26586;50.708;22.412;2022-10-16T13:51:17;22.30;55.70
40868;DHT22;26586;50.708;22.412;2022-10-16T13:53:44;22.30;55.70
40868;DHT22;26586;50.708;22.412;2022-10-16T13:56:13;22.20;55.70
40868;DHT22;26586;50.708;22.412;2022-10-16T13:58:39;22.20;55.20
40868;DHT22;26586;50.708;22.412;2022-10-16T14:01:20;22.30;55.10
40868;DHT22;26586;50.708;22.412;2022-10-16T14:03:49;22.20;55.20
40868;DHT22;26586;50.708;22.412;2022-10-16T14:06:20;22.20;55.40
40868;DHT22;26586;50.708;22.412;2022-10-16T14:11:25;22.20;55.30
40868;DHT22;26586;50.708;22.412;2022-10-16T14:13:52;22.20;55.30
40868;DHT22;26586;50.708;22.412;2022-10-16T14:16:25;22.20;55.20
40868;DHT22;26586;50.708;22.412;2022-10-16T14:19:00;22.20;55.30
40868;DHT22;26586;50.708;22.412;2022-10-16T14:21:27;22.20;55.40
40868;DHT22;26586;50.708;22.412;2022-10-16T14:23:53;22.20;55.60
40868;DHT22;26586;50.708;22.412;2022-10-16T14:26:22;22.20;56.20
40868;DHT22;26586;50.708;22.412;2022-10-16T14:29:01;22.20;55.80
40868;DHT22;26586;50.708;22.412;2022-10-16T14:31:32;22.20;55.50
40868;DHT22;26586;50.708;22.412;2022-10-16T14:33:59;22.20;55.20
40868;DHT22;26586;50.708;22.412;2022-10-16T14:36:26;22.20;55.10
40868;DHT22;26586;50.708;22.412;2022-10-16T14:39:17;22.10;54.90
40868;DHT22;26586;50.708;22.412;2022-10-16T14:41:50;22.20;55.10
40868;DHT22;26586;50.708;22.412;2022-10-16T14:44:18;22.10;54.90
40868;DHT22;26586;50.708;22.412;2022-10-16T14:46:45;22.10;55.10
40868;DHT22;26586;50.708;22.412;2022-10-16T14:51:39;22.10;55.00
40868;DHT22;26586;50.708;22.412;2022-10-16T14:54:16;22.10;55.10
40868;DHT22;26586;50.708;22.412;2022-10-16T14:56:54;22.10;54.80
40868;DHT22;26586;50.708;22.412;2022-10-16T15:01:57;22.00;54.60
40868;DHT22;26586;50.708;22.412;2022-10-16T15:04:24;22.00;54.80
40868;DHT22;26586;50.708;22.412;2022-10-16T15:06:50;22.00;54.70
40868;DHT22;26586;50.708;22.412;2022-10-16T15:09:18;22.00;54.60
40868;DHT22;26586;50.708;22.412;2022-10-16T15:11:50;22.00;54.40
40868;DHT22;26586;50.708;22.412;2022-10-16T15:14:16;22.00;54.60
40868;DHT22;26586;50.708;22.412;2022-10-16T15:16:42;22.00;54.50
40868;DHT22;26586;50.708;22.412;2022-10-16T15:19:09;21.90;54.50
40868;DHT22;26586;50.708;22.412;2022-10-16T15:21:35;21.90;54.80
40868;DHT22;26586;50.708;22.412;2022-10-16T15:24:01;21.90;54.80
40868;DHT22;26586;50.708;22.412;2022-10-16T15:26:29;21.90;54.80
40868;DHT22;26586;50.708;22.412;2022-10-16T15:28:55;21.90;55.00
40868;DHT22;26586;50.708;22.412;2022-10-16T15:31:23;21.90;54.90
40868;DHT22;26586;50.708;22.412;2022-10-16T15:33:53;21.90;55.00
40868;DHT22;26586;50.708;22.412;2022-10-16T15:36:30;21.90;55.10
40868;DHT22;26586;50.708;22.412;2022-10-16T15:38:56;21.80;55.40
40868;DHT22;26586;50.708;22.412;2022-10-16T15:41:23;21.80;55.20
40868;DHT22;26586;50.708;22.412;2022-10-16T15:43:50;21.80;55.20
40868;DHT22;26586;50.708;22.412;2022-10-16T15:46:21;21.80;55.10
40868;DHT22;26586;50.708;22.412;2022-10-16T15:48:51;21.80;54.90
40868;DHT22;26586;50.708;22.412;2022-10-16T15:51:21;21.80;55.00
40868;DHT22;26586;50.708;22.412;2022-10-16T15:53:47;21.70;54.90
40868;DHT22;26586;50.708;22.412;2022-10-16T15:56:15;21.80;54.80
40868;DHT22;26586;50.708;22.412;2022-10-16T15:58:44;21.70;54.80
40868;DHT22;26586;50.708;22.412;2022-10-16T16:01:11;21.70;54.70
40868;DHT22;26586;50.708;22.412;2022-10-16T16:03:38;21.70;54.60
40868;DHT22;26586;50.708;22.412;2022-10-16T16:06:10;21.70;54.80
40868;DHT22;26586;50.708;22.412;2022-10-16T16:08:38;21.70;54.80
40868;DHT22;26586;50.708;22.412;2022-10-16T16:11:08;21.60;54.50
40868;DHT22;26586;50.708;22.412;2022-10-16T16:13:35;21.60;54.40
40868;DHT22;26586;50.708;22.412;2022-10-16T16:16:07;21.60;54.50
40868;DHT22;26586;50.708;22.412;2022-10-16T16:18:34;21.60;54.50
40868;DHT22;26586;50.708;22.412;2022-10-16T16:21:01;21.60;54.30
40868;DHT22;26586;50.708;22.412;2022-10-16T16:23:27;21.60;54.40
40868;DHT22;26586;50.708;22.412;2022-10-16T16:26:12;21.50;54.40
40868;DHT22;26586;50.708;22.412;2022-10-16T16:28:39;21.50;54.40
40868;DHT22;26586;50.708;22.412;2022-10-16T16:31:06;21.50;54.40
40868;DHT22;26586;50.708;22.412;2022-10-16T16:33:33;21.50;54.30
40868;DHT22;26586;50.708;22.412;2022-10-16T16:36:00;21.50;54.20
40868;DHT22;26586;50.708;22.412;2022-10-16T16:38:27;21.40;54.40
40868;DHT22;26586;50.708;22.412;2022-10-16T16:40:54;21.40;54.20
40868;DHT22;26586;50.708;22.412;2022-10-16T16:43:25;21.40;54.20
40868;DHT22;26586;50.708;22.412;2022-10-16T16:45:52;21.40;54.20
40868;DHT22;26586;50.708;22.412;2022-10-16T16:48:18;21.40;54.20
40868;DHT22;26586;50.708;22.412;2022-10-16T16:50:44;21.30;54.00
40868;DHT22;26586;50.708;22.412;2022-10-16T16:53:11;21.30;54.40
40868;DHT22;26586;50.708;22.412;2022-10-16T16:55:37;21.30;53.90
40868;DHT22;26586;50.708;22.412;2022-10-16T16:58:03;21.30;53.80
40868;DHT22;26586;50.708;22.412;2022-10-16T17:00:30;21.30;53.80
40868;DHT22;26586;50.708;22.412;2022-10-16T17:02:57;21.30;53.60
40868;DHT22;26586;50.708;22.412;2022-10-16T17:05:24;21.20;53.60
40868;DHT22;26586;50.708;22.412;2022-10-16T17:07:50;21.20;53.60
40868;DHT22;26586;50.708;22.412;2022-10-16T17:10:16;21.20;53.40
40868;DHT22;26586;50.708;22.412;2022-10-16T17:12:42;21.20;53.60
40868;DHT22;26586;50.708;22.412;2022-10-16T17:15:09;21.20;53.60
40868;DHT22;26586;50.708;22.412;2022-10-16T17:17:35;21.10;53.70
40868;DHT22;26586;50.708;22.412;2022-10-16T17:20:01;21.10;53.50
40868;DHT22;26586;50.708;22.412;2022-10-16T17:22:27;21.10;53.50
40868;DHT22;26586;50.708;22.412;2022-10-16T17:24:54;21.10;53.40
40868;DHT22;26586;50.708;22.412;2022-10-16T17:27:20;21.10;53.60
40868;DHT22;26586;50.708;22.412;2022-10-16T17:29:50;21.10;53.40